createdAt,value
2022-09-06T00:02:22.474Z,96471.72
2022-09-06T00:04:50.688Z,96451.47
2022-09-06T00:07:18.901Z,96457.03
2022-09-06T00:09:48.455Z,96455.38
2022-09-06T00:12:16.771Z,96456.34
2022-09-06T00:14:44.939Z,96449.53
2022-09-06T00:17:13.276Z,96456.34
2022-09-06T00:19:41.459Z,96451.19
2022-09-06T00:22:09.720Z,96413.34
2022-09-06T00:24:38.298Z,96442.66
2022-09-06T00:27:09.060Z,96449.44
2022-09-06T00:29:37.332Z,96413.94
2022-09-06T00:32:05.639Z,96448.09
2022-09-06T00:34:33.852Z,96445.00
2022-09-06T00:37:02.051Z,96447.72
2022-09-06T00:39:30.349Z,96459.03
2022-09-06T00:41:58.588Z,96427.25
2022-09-06T00:44:28.271Z,96438.25
2022-09-06T00:46:56.713Z,96434.31
2022-09-06T00:49:29.798Z,96450.25
2022-09-06T00:52:00.516Z,96450.66
2022-09-06T00:54:29.031Z,96440.47
2022-09-06T00:56:57.516Z,96438.41
2022-09-06T00:59:28.952Z,96411.41
2022-09-06T01:01:57.326Z,96434.59
2022-09-06T01:04:26.013Z,96437.56
2022-09-06T01:07:02.870Z,96443.69
2022-09-06T01:09:43.763Z,96438.28
2022-09-06T01:12:21.540Z,96428.09
2022-09-06T01:15:07.168Z,96432.44
2022-09-06T01:17:43.099Z,96437.88
2022-09-06T01:20:45.688Z,96434.91
2022-09-06T01:23:42.298Z,96440.75
2022-09-06T01:26:26.174Z,96431.66
2022-09-06T01:28:56.348Z,96432.19
2022-09-06T01:31:31.673Z,96435.88
2022-09-06T01:34:13.277Z,96431.69
2022-09-06T01:37:06.219Z,96439.19
2022-09-06T01:39:35.393Z,96443.53
2022-09-06T01:42:07.762Z,96443.53
2022-09-06T01:44:38.612Z,96431.84
2022-09-06T01:47:14.526Z,96439.34
2022-09-06T01:49:48.397Z,96446.94
2022-09-06T01:52:19.606Z,96437.41
2022-09-06T01:54:56.760Z,96379.44
2022-09-06T01:57:42.690Z,96412.72
2022-09-06T02:00:13.813Z,96448.84
2022-09-06T02:02:56.789Z,96411.34
2022-09-06T02:05:29.104Z,96443.00
2022-09-06T02:08:00.546Z,96432.66
2022-09-06T02:10:32.634Z,96432.66
2022-09-06T02:13:02.036Z,96406.63
2022-09-06T02:15:34.644Z,96436.47
2022-09-06T02:18:07.155Z,96429.66
2022-09-06T02:20:38.074Z,96424.91
2022-09-06T02:23:08.483Z,96429.25
2022-09-06T02:25:39.448Z,96432.81
2022-09-06T02:28:09.311Z,96432.41
2022-09-06T02:30:42.134Z,96424.97
2022-09-06T02:33:15.955Z,96391.41
2022-09-06T02:35:45.712Z,96409.06
2022-09-06T02:38:14.227Z,96414.88
2022-09-06T02:40:43.289Z,96424.56
2022-09-06T02:43:11.548Z,96422.47
2022-09-06T02:45:41.257Z,96417.88
2022-09-06T02:48:09.521Z,96424.94
2022-09-06T02:50:38.201Z,96415.06
2022-09-06T02:53:07.925Z,96425.09
2022-09-06T02:55:36.163Z,96431.19
2022-09-06T02:58:05.262Z,96427.53
2022-09-06T03:00:34.167Z,96422.66
2022-09-06T03:03:03.804Z,96425.63
2022-09-06T03:05:32.098Z,96420.06
2022-09-06T03:08:00.285Z,96427.53
2022-09-06T03:10:28.760Z,96391.84
2022-09-06T03:12:57.310Z,96397.97
2022-09-06T03:15:25.557Z,96429.59
2022-09-06T03:17:53.879Z,96434.06
2022-09-06T03:20:23.464Z,96434.22
2022-09-06T03:22:51.679Z,96401.38
2022-09-06T03:25:19.942Z,96423.63
2022-09-06T03:27:48.266Z,96420.59
2022-09-06T03:30:16.639Z,96418.44
2022-09-06T03:32:45.225Z,96423.03
2022-09-06T03:35:15.471Z,96416.00
2022-09-06T03:37:45.118Z,96371.09
2022-09-06T03:40:13.629Z,96414.66
2022-09-06T03:42:41.828Z,96414.91
2022-09-06T03:45:10.823Z,96412.22
2022-09-06T03:47:39.234Z,96412.34
2022-09-06T03:50:08.849Z,96404.75
2022-09-06T03:52:37.066Z,96411.41
2022-09-06T03:55:07.619Z,96408.28
2022-09-06T03:57:35.862Z,96415.31
2022-09-06T04:00:04.962Z,96400.53
2022-09-06T04:02:34.153Z,96412.09
2022-09-06T04:05:03.071Z,96407.88
2022-09-06T04:07:31.291Z,96416.44
2022-09-06T04:09:59.487Z,96413.16
2022-09-06T04:12:29.149Z,96421.72
2022-09-06T04:14:57.725Z,96424.44
2022-09-06T04:17:25.978Z,96410.59
2022-09-06T04:19:54.270Z,96424.03
2022-09-06T04:22:22.541Z,96408.41
2022-09-06T04:24:50.821Z,96384.81
2022-09-06T04:27:19.183Z,96410.31
2022-09-06T04:29:48.961Z,96404.91
2022-09-06T04:32:17.232Z,96395.91
2022-09-06T04:34:45.484Z,96396.72
2022-09-06T04:37:14.969Z,96382.63
2022-09-06T04:39:43.253Z,96407.72
2022-09-06T04:42:11.757Z,96423.19
2022-09-06T04:44:40.004Z,96378.00
2022-09-06T04:47:15.451Z,96410.97
2022-09-06T04:49:44.072Z,96409.66
2022-09-06T04:52:12.705Z,96403.81
2022-09-06T04:54:40.939Z,96416.56
2022-09-06T04:57:09.151Z,96401.59
2022-09-06T04:59:37.455Z,96408.56
2022-09-06T05:02:06.845Z,96408.00
2022-09-06T05:04:37.917Z,96395.81
2022-09-06T05:07:08.251Z,96409.66
2022-09-06T05:09:36.934Z,96410.44
2022-09-06T05:12:05.402Z,96416.28
2022-09-06T05:14:33.700Z,96415.22
2022-09-06T05:17:01.968Z,96412.75
2022-09-06T05:19:30.152Z,96417.63
2022-09-06T05:21:59.741Z,96422.53
2022-09-06T05:24:27.919Z,96438.16
2022-09-06T05:26:56.148Z,96429.06
2022-09-06T05:29:28.722Z,96421.97
2022-09-06T05:31:58.813Z,96430.25
2022-09-06T05:34:27.046Z,96426.56
2022-09-06T05:36:55.220Z,96416.50
2022-09-06T05:39:24.922Z,96424.28
2022-09-06T05:41:53.156Z,96432.66
2022-09-06T05:44:21.342Z,96427.22
2022-09-06T05:46:49.571Z,96421.50
2022-09-06T05:49:18.041Z,96419.69
2022-09-06T05:51:46.284Z,96416.91
2022-09-06T05:54:14.570Z,96420.72
2022-09-06T05:56:44.232Z,96420.72
2022-09-06T05:59:12.443Z,96427.38
2022-09-06T06:01:49.166Z,96399.38
2022-09-06T06:04:22.440Z,96400.44
2022-09-06T06:06:50.630Z,96431.50
2022-09-06T06:09:18.890Z,96418.00
2022-09-06T06:11:48.838Z,96427.72
2022-09-06T06:14:17.091Z,96398.88
2022-09-06T06:16:45.346Z,96394.19
2022-09-06T06:19:14.628Z,96426.25
2022-09-06T06:21:43.783Z,96419.22
2022-09-06T06:24:12.166Z,96423.88
2022-09-06T06:26:40.554Z,96434.97
2022-09-06T06:29:10.281Z,96426.97
2022-09-06T06:31:39.548Z,96427.69
2022-09-06T06:34:07.958Z,96434.41
2022-09-06T06:36:37.243Z,96434.16
2022-09-06T06:39:08.471Z,96433.50
2022-09-06T06:41:37.442Z,96434.63
2022-09-06T06:44:06.739Z,96434.84
2022-09-06T06:46:38.424Z,96438.06
2022-09-06T06:49:06.960Z,96438.19
2022-09-06T06:51:37.324Z,96440.53
2022-09-06T06:54:05.892Z,96440.75
2022-09-06T06:56:35.603Z,96444.50
2022-09-06T06:59:05.385Z,96444.81
2022-09-06T07:01:36.223Z,96443.50
2022-09-06T07:04:05.914Z,96440.00
2022-09-06T07:12:25.332Z,96451.50
2022-09-06T07:14:53.752Z,96416.44
2022-09-06T07:17:23.471Z,96424.72
2022-09-06T07:22:40.681Z,96446.63
2022-09-06T07:25:10.518Z,96439.81
2022-09-06T07:30:15.059Z,96448.09
2022-09-06T07:32:44.599Z,96437.56
2022-09-06T07:35:14.049Z,96415.09
2022-09-06T07:37:42.442Z,96445.41
2022-09-06T07:40:11.840Z,96448.28
2022-09-06T07:42:40.192Z,96447.09
2022-09-06T07:45:09.460Z,96448.91
2022-09-06T07:53:22.978Z,96438.00
2022-09-06T07:55:57.370Z,96442.03
2022-09-06T07:58:25.549Z,96444.44
2022-09-06T08:00:53.789Z,96434.75
2022-09-06T08:03:22.877Z,96435.19
2022-09-06T08:06:08.538Z,96434.22
2022-09-06T08:11:27.531Z,96439.63
2022-09-06T08:13:56.994Z,96419.88
2022-09-06T08:16:27.964Z,96448.00
2022-09-06T08:18:57.716Z,96436.06
2022-09-06T08:21:29.261Z,96447.88
2022-09-06T08:23:58.570Z,96442.47
2022-09-06T08:26:28.205Z,96439.34
2022-09-06T08:28:58.284Z,96436.75
2022-09-06T08:31:26.688Z,96431.63
2022-09-06T08:33:55.647Z,96439.66
2022-09-06T08:36:23.984Z,96440.44
2022-09-06T08:38:53.577Z,96437.22
2022-09-06T08:41:27.517Z,96436.41
2022-09-06T08:46:52.317Z,96433.34
2022-09-06T08:49:20.624Z,96441.13
2022-09-06T08:52:00.852Z,96419.00
2022-09-06T08:54:35.522Z,96440.78
2022-09-06T08:57:11.528Z,96434.44
2022-09-06T08:59:41.267Z,96442.47
2022-09-06T09:02:16.789Z,96449.09
2022-09-06T09:04:53.290Z,96435.91
2022-09-06T09:07:42.127Z,96445.28
2022-09-06T09:10:18.491Z,96417.72
2022-09-06T09:12:50.913Z,96432.72
2022-09-06T09:15:21.281Z,96428.22
2022-09-06T09:17:52.138Z,96425.28
2022-09-06T09:20:22.871Z,96431.38
2022-09-06T09:22:52.411Z,96423.53
2022-09-06T09:25:24.301Z,96417.53
2022-09-06T09:27:57.947Z,96423.00
2022-09-06T09:33:31.262Z,96419.94
2022-09-06T09:36:01.333Z,96409.66
2022-09-06T09:38:35.049Z,96411.41
2022-09-06T09:41:07.424Z,96409.38
2022-09-06T09:43:38.961Z,96409.06
2022-09-06T09:46:14.673Z,96398.72
2022-09-06T09:48:46.548Z,96391.13
2022-09-06T09:51:26.092Z,96392.38
2022-09-06T09:53:56.714Z,96371.47
2022-09-06T09:56:37.881Z,96390.72
2022-09-06T09:59:16.627Z,96387.09
2022-09-06T10:01:44.854Z,96359.13
2022-09-06T10:07:14.322Z,96395.13
2022-09-06T10:09:43.682Z,96375.91
2022-09-06T10:12:18.513Z,96384.44
2022-09-06T10:14:48.269Z,96371.56
2022-09-06T10:17:33.032Z,96371.97
2022-09-06T10:20:04.593Z,96381.34
2022-09-06T10:22:33.413Z,96384.47
2022-09-06T10:25:47.713Z,96372.78
2022-09-06T10:28:51.546Z,96342.34
2022-09-06T10:32:07.610Z,96307.09
2022-09-06T10:35:09.522Z,96379.72
2022-09-06T10:37:55.834Z,96372.19
2022-09-06T10:41:00.753Z,96361.84
2022-09-06T10:44:07.944Z,96366.59
2022-09-06T10:47:11.233Z,96371.81
2022-09-06T10:50:09.858Z,96378.03
2022-09-06T10:53:05.628Z,96379.22
2022-09-06T10:56:08.978Z,96383.03
2022-09-06T11:02:10.164Z,96374.13
2022-09-06T11:07:34.634Z,96367.31
2022-09-06T11:10:09.689Z,96359.06
2022-09-06T11:12:48.881Z,96362.41
2022-09-06T11:15:20.928Z,96355.91
2022-09-06T11:17:54.174Z,96353.63
2022-09-06T11:20:31.380Z,96341.41
2022-09-06T11:23:20.352Z,96351.25
2022-09-06T11:26:12.955Z,96353.41
2022-09-06T11:28:46.565Z,96347.25
2022-09-06T11:34:20.438Z,96357.44
2022-09-06T11:36:50.126Z,96317.44
2022-09-06T11:42:42.037Z,96354.00
2022-09-06T11:45:21.732Z,96357.81
2022-09-06T11:47:52.229Z,96363.34
2022-09-06T11:50:26.025Z,96358.38
2022-09-06T11:53:03.243Z,96357.19
2022-09-06T11:55:34.662Z,96355.25
2022-09-06T11:58:04.915Z,96363.06
2022-09-06T12:00:33.977Z,96353.78
2022-09-06T12:06:17.046Z,96356.44
2022-09-06T12:08:46.536Z,96352.31
2022-09-06T12:11:30.329Z,96345.47
2022-09-06T12:14:03.249Z,96343.38
2022-09-06T12:17:09.125Z,96343.22
2022-09-06T12:19:44.854Z,96310.84
2022-09-06T12:23:07.032Z,96338.41
2022-09-06T12:26:05.699Z,96338.13
2022-09-06T12:28:43.526Z,96337.31
2022-09-06T12:31:30.725Z,96343.19
2022-09-06T12:33:59.888Z,96315.97
2022-09-06T12:36:32.094Z,96324.72
2022-09-06T12:39:02.411Z,96318.06
2022-09-06T12:41:33.152Z,96311.19
2022-09-06T12:44:02.930Z,96298.91
2022-09-06T12:46:32.256Z,96312.09
2022-09-06T12:49:02.136Z,96309.34
2022-09-06T12:51:31.833Z,96304.31
2022-09-06T12:54:01.998Z,96299.34
2022-09-06T12:56:32.907Z,96289.06
2022-09-06T12:59:19.475Z,96298.56
2022-09-06T13:01:55.590Z,96291.84
2022-09-06T13:04:30.464Z,96293.88
2022-09-06T13:07:02.260Z,96270.34
2022-09-06T13:09:30.813Z,96291.66
2022-09-06T13:12:04.773Z,96271.56
2022-09-06T13:14:33.459Z,96288.22
2022-09-06T13:17:01.857Z,96286.06
2022-09-06T13:19:33.025Z,96279.81
2022-09-06T13:22:03.873Z,96277.97
2022-09-06T13:24:46.888Z,96250.53
2022-09-06T13:27:26.216Z,96271.66
2022-09-06T13:29:58.424Z,96266.63
2022-09-06T13:32:27.656Z,96272.44
2022-09-06T13:34:57.963Z,96271.69
2022-09-06T13:37:29.261Z,96269.44
2022-09-06T13:39:59.444Z,96265.06
2022-09-06T13:42:30.181Z,96269.28
2022-09-06T13:45:01.907Z,96259.75
2022-09-06T13:47:30.871Z,96262.19
2022-09-06T13:49:58.966Z,96229.97
2022-09-06T13:52:28.804Z,96259.13
2022-09-06T13:54:56.955Z,96257.69
2022-09-06T13:57:25.134Z,96265.56
2022-09-06T13:59:53.480Z,96269.06
2022-09-06T14:02:22.529Z,96268.19
2022-09-06T14:04:51.090Z,96265.03
2022-09-06T14:07:19.277Z,96274.16
2022-09-06T14:09:50.234Z,96264.19
2022-09-06T14:12:34.697Z,96264.03
2022-09-06T14:15:03.360Z,96256.63
2022-09-06T14:17:32.925Z,96235.13
2022-09-06T14:20:01.165Z,96257.69
2022-09-06T14:22:29.542Z,96166.09
2022-09-06T14:24:59.183Z,96245.78
2022-09-06T14:27:27.466Z,96242.53
2022-09-06T14:29:55.543Z,96246.66
2022-09-06T14:32:24.829Z,96253.09
2022-09-06T14:34:53.032Z,96250.16
2022-09-06T14:37:21.913Z,96247.47
2022-09-06T14:40:30.177Z,96249.19
2022-09-06T14:42:59.211Z,96248.31
2022-09-06T14:45:27.565Z,96256.16
2022-09-06T14:47:56.279Z,96247.19
2022-09-06T14:50:24.790Z,96248.00
2022-09-06T14:52:53.187Z,96242.81
2022-09-06T14:55:21.986Z,96246.91
2022-09-06T14:57:51.768Z,96242.69
2022-09-06T15:00:20.200Z,96242.09
2022-09-06T15:02:49.315Z,96210.16
2022-09-06T15:05:18.363Z,96243.00
2022-09-06T15:07:46.771Z,96226.88
2022-09-06T15:10:15.170Z,96237.56
2022-09-06T15:12:43.511Z,96240.94
2022-09-06T15:15:13.320Z,96239.75
2022-09-06T15:17:41.729Z,96236.38
2022-09-06T15:20:10.732Z,96225.47
2022-09-06T15:22:39.049Z,96235.94
2022-09-06T15:25:08.232Z,96237.97
2022-09-06T15:27:36.536Z,96239.81
2022-09-06T15:30:05.142Z,96238.94
2022-09-06T15:32:35.093Z,96226.09
2022-09-06T15:35:04.773Z,96225.13
2022-09-06T15:37:33.193Z,96238.97
2022-09-06T15:40:01.611Z,96224.28
2022-09-06T15:42:30.975Z,96229.47
2022-09-06T15:44:59.260Z,96221.03
2022-09-06T15:47:27.576Z,96219.06
2022-09-06T15:49:57.496Z,96216.44
2022-09-06T15:52:25.764Z,96214.22
2022-09-06T15:55:11.562Z,96211.00
2022-09-06T15:57:39.870Z,96210.75
2022-09-06T16:00:09.262Z,96209.34
2022-09-06T16:02:38.504Z,96192.34
2022-09-06T16:05:10.830Z,96213.91
2022-09-06T16:07:43.213Z,96218.06
2022-09-06T16:10:12.372Z,96211.22
2022-09-06T16:12:41.260Z,96216.72
2022-09-06T16:15:10.415Z,96215.09
2022-09-06T16:17:38.739Z,96214.25
2022-09-06T16:20:09.530Z,96219.16
2022-09-06T16:22:38.081Z,96217.25
2022-09-06T16:25:07.065Z,96213.56
2022-09-06T16:27:35.388Z,96208.84
2022-09-06T16:30:03.658Z,96185.06
2022-09-06T16:32:32.287Z,96212.91
2022-09-06T16:35:01.357Z,96209.00
2022-09-06T16:37:31.068Z,96215.19
2022-09-06T16:39:59.521Z,96220.28
2022-09-06T16:42:27.953Z,96223.78
2022-09-06T16:44:56.620Z,96235.72
2022-09-06T16:47:25.012Z,96232.72
2022-09-06T16:49:53.352Z,96222.03
2022-09-06T16:52:21.852Z,96220.44
2022-09-06T16:54:52.033Z,96227.69
2022-09-06T16:57:21.656Z,96231.28
2022-09-06T16:59:50.338Z,96229.44
2022-09-06T17:02:22.343Z,96230.81
2022-09-06T17:04:51.466Z,96221.69
2022-09-06T17:07:19.886Z,96226.28
2022-09-06T17:09:48.168Z,96222.22
2022-09-06T17:12:18.097Z,96220.28
2022-09-06T17:14:46.491Z,96225.25
2022-09-06T17:17:16.554Z,96187.44
2022-09-06T17:19:44.855Z,96220.88
2022-09-06T17:22:13.829Z,96221.41
2022-09-06T17:24:42.698Z,96199.06
2022-09-06T17:27:11.237Z,96230.22
2022-09-06T17:29:41.167Z,96226.16
2022-09-06T17:32:11.171Z,96234.97
2022-09-06T17:34:39.970Z,96237.28
2022-09-06T17:37:08.872Z,96226.97
2022-09-06T17:39:37.425Z,96228.56
2022-09-06T17:42:06.476Z,96232.19
2022-09-06T17:44:34.869Z,96230.91
2022-09-06T17:47:13.759Z,96219.16
2022-09-06T17:49:42.591Z,96190.00
2022-09-06T17:52:10.966Z,96233.75
2022-09-06T17:54:39.422Z,96232.31
2022-09-06T17:57:07.732Z,96234.38
2022-09-06T17:59:36.312Z,96236.38
2022-09-06T18:02:06.463Z,96231.50
2022-09-06T18:04:35.848Z,96232.41
2022-09-06T18:07:04.720Z,96238.56
2022-09-06T18:09:32.989Z,96251.00
2022-09-06T18:12:02.047Z,96220.59
2022-09-06T18:14:30.552Z,96248.00
2022-09-06T18:16:58.972Z,96252.69
2022-09-06T18:19:28.854Z,96213.28
2022-09-06T18:21:57.821Z,96219.09
2022-09-06T18:24:26.215Z,96247.22
2022-09-06T18:26:55.470Z,96250.22
2022-09-06T18:29:23.942Z,96249.75
2022-09-06T18:31:53.811Z,96231.34
2022-09-06T18:34:22.710Z,96250.78
2022-09-06T18:36:52.500Z,96249.97
2022-09-06T18:39:21.233Z,96241.94
2022-09-06T18:42:01.663Z,96264.66
2022-09-06T18:44:32.434Z,96270.09
2022-09-06T18:47:02.251Z,96268.63
2022-09-06T18:49:32.505Z,96264.41
2022-09-06T18:52:02.601Z,96269.44
2022-09-06T18:54:31.123Z,96238.84
2022-09-06T18:57:00.105Z,96270.59
2022-09-06T18:59:28.627Z,96272.91
2022-09-06T19:01:58.043Z,96251.91
2022-09-06T19:04:27.243Z,96288.44
2022-09-06T19:06:55.803Z,96253.78
2022-09-06T19:09:25.597Z,96283.81
2022-09-06T19:11:53.946Z,96254.81
2022-09-06T19:14:23.304Z,96282.56
2022-09-06T19:16:53.932Z,96264.69
2022-09-06T19:19:23.256Z,96276.06
2022-09-06T19:21:51.793Z,96280.13
2022-09-06T19:24:22.701Z,96275.28
2022-09-06T19:26:53.575Z,96288.59
2022-09-06T19:29:22.271Z,96284.88
2022-09-06T19:31:52.277Z,96249.34
2022-09-06T19:34:21.208Z,96285.81
2022-09-06T19:36:50.155Z,96278.03
2022-09-06T19:39:19.010Z,96249.53
2022-09-06T19:41:47.853Z,96281.97
2022-09-06T19:44:18.602Z,96269.78
2022-09-06T19:46:49.574Z,96277.75
2022-09-06T19:49:19.319Z,96229.97
2022-09-06T19:51:49.009Z,96279.75
2022-09-06T19:54:17.815Z,96276.38
2022-09-06T19:56:46.448Z,96275.22
2022-09-06T19:59:15.892Z,96280.41
2022-09-06T20:01:46.606Z,96274.94
2022-09-06T20:04:16.349Z,96264.19
2022-09-06T20:06:46.348Z,96266.78
2022-09-06T20:09:16.701Z,96270.38
2022-09-06T20:11:46.404Z,96261.44
2022-09-06T20:14:14.948Z,96259.03
2022-09-06T20:16:43.570Z,96269.75
2022-09-06T20:19:15.117Z,96257.53
2022-09-06T20:21:44.488Z,96244.41
2022-09-06T20:24:12.719Z,96245.91
2022-09-06T20:26:40.966Z,96245.22
2022-09-06T20:29:10.413Z,96244.25
2022-09-06T20:31:39.547Z,96240.84
2022-09-06T20:34:08.412Z,96244.25
2022-09-06T20:36:38.529Z,96229.34
2022-09-06T20:39:07.032Z,96244.41
2022-09-06T20:41:35.487Z,96240.84
2022-09-06T20:44:07.319Z,96235.31
2022-09-06T20:46:39.770Z,96239.69
2022-09-06T20:49:09.188Z,96205.63
2022-09-06T20:51:43.305Z,96230.16
2022-09-06T20:54:12.524Z,96232.91
2022-09-06T20:56:42.691Z,96231.09
2022-09-06T20:59:12.574Z,96229.66
2022-09-06T21:01:43.223Z,96227.38
2022-09-06T21:04:49.369Z,96228.84
2022-09-06T21:07:19.004Z,96224.94
2022-09-06T21:09:47.329Z,96229.78
2022-09-06T21:12:15.599Z,96221.38
2022-09-06T21:14:44.233Z,96218.44
2022-09-06T21:17:12.495Z,96223.47
2022-09-06T21:19:41.058Z,96214.22
2022-09-06T21:22:09.415Z,96218.75
2022-09-06T21:24:39.631Z,96223.16
2022-09-06T21:27:08.000Z,96214.56
2022-09-06T21:29:36.279Z,96216.81
2022-09-06T21:32:05.043Z,96210.84
2022-09-06T21:34:33.585Z,96222.81
2022-09-06T21:37:01.861Z,96209.88
2022-09-06T21:39:30.184Z,96203.38
2022-09-06T21:42:00.373Z,96214.72
2022-09-06T21:44:28.909Z,96211.16
2022-09-06T21:46:57.233Z,96216.81
2022-09-06T21:49:38.621Z,96207.59
2022-09-06T21:52:09.866Z,96214.56
2022-09-06T21:54:38.115Z,96220.34
2022-09-06T21:57:07.897Z,96212.25
2022-09-06T21:59:36.204Z,96217.91
2022-09-06T22:02:05.189Z,96212.22
2022-09-06T22:04:33.471Z,96215.28
2022-09-06T22:07:01.943Z,96210.69
2022-09-06T22:09:30.256Z,96208.13
2022-09-06T22:11:58.706Z,96189.16
2022-09-06T22:14:28.375Z,96210.88
2022-09-06T22:16:56.628Z,96216.69
2022-09-06T22:19:24.946Z,96211.19
2022-09-06T22:21:54.660Z,96217.31
2022-09-06T22:24:22.918Z,96210.03
2022-09-06T22:26:51.602Z,96098.09
2022-09-06T22:29:19.832Z,96196.06
2022-09-06T22:31:49.566Z,96190.38
2022-09-06T22:34:17.978Z,96164.72
2022-09-06T22:36:46.375Z,96199.72
2022-09-06T22:39:14.670Z,96206.34
2022-09-06T22:41:42.934Z,96203.75
2022-09-06T22:44:11.233Z,96202.97
2022-09-06T22:46:39.858Z,96187.72
2022-09-06T22:49:09.575Z,96188.88
2022-09-06T22:51:37.841Z,96190.31
2022-09-06T22:54:06.402Z,96189.19
2022-09-06T22:56:35.732Z,96194.03
2022-09-06T22:59:04.278Z,96185.28
2022-09-06T23:01:33.968Z,96187.38
2022-09-06T23:04:02.308Z,96170.06
2022-09-06T23:06:31.941Z,96176.16
2022-09-06T23:09:00.246Z,96174.69
2022-09-06T23:11:28.875Z,96165.00
2022-09-06T23:13:57.760Z,96163.38
2022-09-06T23:16:27.160Z,96154.28
2022-09-06T23:18:55.637Z,96122.31
2022-09-06T23:21:25.618Z,96154.09
2022-09-06T23:23:56.636Z,96149.41
2022-09-06T23:26:27.016Z,96161.81
2022-09-06T23:28:56.641Z,96154.38
2022-09-06T23:31:26.087Z,96161.81
2022-09-06T23:33:54.808Z,96162.00
2022-09-06T23:36:23.153Z,96154.22
2022-09-06T23:38:51.571Z,96158.75
2022-09-06T23:41:21.137Z,96145.66
2022-09-06T23:43:49.515Z,96147.41
2022-09-06T23:46:18.255Z,96145.44
2022-09-06T23:48:47.078Z,96139.78
2022-09-06T23:51:15.410Z,96138.44
2022-09-06T23:53:43.739Z,96142.97
2022-09-06T23:56:12.393Z,96143.56
2022-09-06T23:58:42.032Z,96149.63
